Time;durP1;ratioP1;P1;durP2;ratioP2;P2;SDS_P1;SDS_P2;PMS_P1;PMS_P2;Temp;Humidity;BMP_temperature;BMP_pressure;BME280_temperature;BME280_humidity;BME280_pressure;Samples;Min_cycle;Max_cycle;Signal;HPM_P1;HPM_P2
2023/07/02 00:01:19;;;;;;;;;;;17.20;99.90;;;;;;5078866;28;20008;-68
2023/07/02 00:03:47;;;;;;;;;;;17.20;99.90;;;;;;5078599;28;20453;-68
2023/07/02 00:06:13;;;;;;;;;;;17.20;99.90;;;;;;5078862;28;20093;-68
2023/07/02 00:08:41;;;;;;;;;;;17.20;99.90;;;;;;5078720;28;20496;-68
2023/07/02 00:11:12;;;;;;;;;;;17.20;99.90;;;;;;5078776;28;20012;-67
2023/07/02 00:13:39;;;;;;;;;;;17.20;99.90;;;;;;5079185;28;19998;-67
2023/07/02 00:16:05;;;;;;;;;;;17.20;99.90;;;;;;5079794;28;20310;-68
2023/07/02 00:18:33;;;;;;;;;;;17.20;99.90;;;;;;5078948;28;20023;-68
2023/07/02 00:21:03;;;;;;;;;;;17.20;99.90;;;;;;5078785;28;20068;-69
2023/07/02 00:23:30;;;;;;;;;;;17.20;99.90;;;;;;5078340;28;20080;-68
2023/07/02 00:25:57;;;;;;;;;;;17.20;99.90;;;;;;5078302;28;20433;-68
2023/07/02 00:28:23;;;;;;;;;;;17.20;99.90;;;;;;5078113;28;20051;-68
2023/07/02 00:30:50;;;;;;;;;;;17.10;99.90;;;;;;5078678;28;20009;-68
2023/07/02 00:33:17;;;;;;;;;;;17.10;99.90;;;;;;5078547;28;20011;-68
2023/07/02 00:35:43;;;;;;;;;;;17.10;99.90;;;;;;5078161;28;20045;-68
2023/07/02 00:38:11;;;;;;;;;;;17.10;99.90;;;;;;5077805;28;20018;-68
2023/07/02 00:40:38;;;;;;;;;;;17.10;99.90;;;;;;5077932;28;20001;-68
2023/07/02 00:43:05;;;;;;;;;;;17.10;99.90;;;;;;5077379;28;20027;-68
2023/07/02 00:45:31;;;;;;;;;;;17.10;99.90;;;;;;5077023;28;20059;-68
2023/07/02 00:47:58;;;;;;;;;;;17.10;99.90;;;;;;5077132;28;20318;-68
2023/07/02 00:50:25;;;;;;;;;;;17.10;99.90;;;;;;5076482;28;20001;-68
2023/07/02 00:52:53;;;;;;;;;;;17.10;99.90;;;;;;5076867;28;20340;-68
2023/07/02 00:55:22;;;;;;;;;;;17.20;99.90;;;;;;5076649;28;20059;-68
2023/07/02 00:57:48;;;;;;;;;;;17.20;99.90;;;;;;5076868;28;20023;-68
2023/07/02 01:00:15;;;;;;;;;;;17.20;99.90;;;;;;5076919;28;20056;-68
2023/07/02 01:02:43;;;;;;;;;;;17.20;99.90;;;;;;5076780;28;20329;-68
2023/07/02 01:05:14;;;;;;;;;;;17.20;99.90;;;;;;5076555;28;20001;-68
2023/07/02 01:07:41;;;;;;;;;;;17.20;99.90;;;;;;5076678;28;20384;-68
2023/07/02 01:10:10;;;;;;;;;;;17.20;99.90;;;;;;5076456;28;20001;-69
2023/07/02 01:12:38;;;;;;;;;;;17.20;99.90;;;;;;5076480;28;20124;-68
2023/07/02 01:15:06;;;;;;;;;;;17.10;99.90;;;;;;5076443;28;20001;-68
2023/07/02 01:17:41;;;;;;;;;;;17.10;99.90;;;;;;5076626;28;20075;-68
2023/07/02 01:20:10;;;;;;;;;;;17.10;99.90;;;;;;5076245;28;20066;-68
2023/07/02 01:22:38;;;;;;;;;;;17.10;99.90;;;;;;5076413;28;20001;-67
2023/07/02 01:25:05;;;;;;;;;;;17.10;99.90;;;;;;5076242;28;20001;-67
2023/07/02 01:27:32;;;;;;;;;;;17.10;99.90;;;;;;5076016;28;20135;-67
2023/07/02 01:29:59;;;;;;;;;;;17.10;99.90;;;;;;5076183;28;20012;-67
2023/07/02 01:32:26;;;;;;;;;;;17.10;99.90;;;;;;5076051;28;20318;-67
2023/07/02 01:34:54;;;;;;;;;;;17.00;99.90;;;;;;5076011;28;20105;-67
2023/07/02 01:37:22;;;;;;;;;;;17.00;99.90;;;;;;5037435;28;1097342;-68
2023/07/02 01:39:48;;;;;;;;;;;17.00;99.90;;;;;;5076939;28;20092;-68
2023/07/02 01:42:16;;;;;;;;;;;17.00;99.90;;;;;;5076761;28;20000;-67
2023/07/02 01:44:43;;;;;;;;;;;17.00;99.90;;;;;;5076893;28;20318;-67
2023/07/02 01:47:10;;;;;;;;;;;17.00;99.90;;;;;;5076847;28;20341;-68
2023/07/02 01:49:37;;;;;;;;;;;17.00;99.90;;;;;;5076597;28;20001;-68
2023/07/02 01:52:04;;;;;;;;;;;17.00;99.90;;;;;;5076784;28;20015;-67
2023/07/02 01:54:33;;;;;;;;;;;17.00;99.90;;;;;;5076611;28;20001;-68
2023/07/02 01:57:00;;;;;;;;;;;17.00;99.90;;;;;;5076470;28;20403;-68
2023/07/02 01:59:27;;;;;;;;;;;17.00;99.90;;;;;;5076241;28;20430;-68
2023/07/02 02:01:53;;;;;;;;;;;17.00;99.90;;;;;;5076485;28;20015;-68
2023/07/02 02:04:20;;;;;;;;;;;17.00;99.90;;;;;;5076445;28;19997;-68
2023/07/02 02:06:46;;;;;;;;;;;17.00;99.90;;;;;;5075664;28;20424;-68
2023/07/02 02:09:13;;;;;;;;;;;16.90;99.90;;;;;;5075963;28;20005;-67
2023/07/02 02:11:42;;;;;;;;;;;16.90;99.90;;;;;;5076339;28;20341;-67
2023/07/02 02:14:11;;;;;;;;;;;16.90;99.90;;;;;;5076230;28;20012;-67
2023/07/02 02:16:38;;;;;;;;;;;16.90;99.90;;;;;;5076308;28;20001;-67
2023/07/02 02:19:05;;;;;;;;;;;16.80;99.90;;;;;;5076039;28;20023;-67
2023/07/02 02:21:32;;;;;;;;;;;16.80;99.90;;;;;;5076143;28;20100;-67
2023/07/02 02:23:58;;;;;;;;;;;16.80;99.90;;;;;;5075799;28;20011;-67
2023/07/02 02:26:25;;;;;;;;;;;16.80;99.90;;;;;;5076155;28;20027;-67
2023/07/02 02:28:53;;;;;;;;;;;16.80;99.90;;;;;;5076035;28;20304;-67
2023/07/02 02:31:20;;;;;;;;;;;16.80;99.90;;;;;;5075660;28;20001;-67
2023/07/02 02:33:49;;;;;;;;;;;16.80;99.90;;;;;;5076021;28;20398;-67
2023/07/02 02:36:17;;;;;;;;;;;16.80;99.90;;;;;;5075803;28;20091;-67
2023/07/02 02:38:43;;;;;;;;;;;16.70;99.90;;;;;;5075624;28;20021;-67
2023/07/02 02:41:10;;;;;;;;;;;16.70;99.90;;;;;;5075834;28;20012;-67
2023/07/02 02:43:37;;;;;;;;;;;16.70;99.90;;;;;;5075604;28;20027;-67
2023/07/02 02:46:05;;;;;;;;;;;16.70;99.90;;;;;;5075596;28;20016;-67
2023/07/02 02:48:31;;;;;;;;;;;16.70;99.90;;;;;;5075690;28;20011;-67
2023/07/02 02:50:59;;;;;;;;;;;16.70;99.90;;;;;;5075527;28;20023;-67
2023/07/02 02:53:28;;;;;;;;;;;16.70;99.90;;;;;;5075482;28;20357;-67
2023/07/02 02:55:55;;;;;;;;;;;16.70;99.90;;;;;;5075477;28;20001;-67
2023/07/02 02:58:22;;;;;;;;;;;16.70;99.90;;;;;;5075166;28;20013;-68
2023/07/02 03:00:49;;;;;;;;;;;16.60;99.90;;;;;;5075443;28;20013;-68
2023/07/02 03:03:17;;;;;;;;;;;16.60;99.90;;;;;;5075479;28;20012;-68
2023/07/02 03:05:47;;;;;;;;;;;16.60;99.90;;;;;;5075727;28;20031;-66
2023/07/02 03:08:13;;;;;;;;;;;16.60;99.90;;;;;;5075372;28;20000;-68
2023/07/02 03:10:40;;;;;;;;;;;16.60;99.90;;;;;;5075173;28;20001;-66
2023/07/02 03:13:07;;;;;;;;;;;16.60;99.90;;;;;;5075532;28;20012;-66
2023/07/02 03:15:33;;;;;;;;;;;16.60;99.90;;;;;;5075455;28;20336;-66
2023/07/02 03:18:00;;;;;;;;;;;16.60;99.90;;;;;;5075125;28;20450;-68
2023/07/02 03:20:28;;;;;;;;;;;16.60;99.90;;;;;;5075269;28;20011;-67
2023/07/02 03:22:54;;;;;;;;;;;16.60;99.90;;;;;;5075131;28;20005;-67
2023/07/02 03:25:21;;;;;;;;;;;16.70;99.90;;;;;;5075139;28;20007;-67
2023/07/02 03:27:48;;;;;;;;;;;16.70;99.90;;;;;;5074797;28;20001;-67
2023/07/02 03:30:14;;;;;;;;;;;16.60;99.90;;;;;;5075134;28;20005;-67
2023/07/02 03:32:41;;;;;;;;;;;16.60;99.90;;;;;;5075285;28;20001;-66
2023/07/02 03:35:08;;;;;;;;;;;16.60;99.90;;;;;;5075251;28;20366;-67
2023/07/02 03:37:36;;;;;;;;;;;16.50;99.90;;;;;;5074688;28;20119;-66
2023/07/02 03:40:04;;;;;;;;;;;16.50;99.90;;;;;;5075186;28;20073;-67
2023/07/02 03:42:30;;;;;;;;;;;16.50;99.90;;;;;;5074965;28;20012;-68
2023/07/02 03:44:57;;;;;;;;;;;16.50;99.90;;;;;;5075033;28;20092;-67
2023/07/02 03:47:27;;;;;;;;;;;16.50;99.90;;;;;;5074837;28;20060;-67
2023/07/02 03:49:53;;;;;;;;;;;16.50;99.90;;;;;;5074958;28;20198;-68
2023/07/02 03:52:20;;;;;;;;;;;16.50;99.90;;;;;;5074958;28;20055;-67
2023/07/02 03:54:48;;;;;;;;;;;16.50;99.90;;;;;;5074885;28;20001;-67
2023/07/02 03:57:15;;;;;;;;;;;16.50;99.90;;;;;;5074939;28;20087;-67
2023/07/02 03:59:42;;;;;;;;;;;16.50;99.90;;;;;;5074719;28;20017;-67
2023/07/02 04:02:08;;;;;;;;;;;16.50;99.90;;;;;;5074873;28;20303;-67
2023/07/02 04:04:35;;;;;;;;;;;16.50;99.90;;;;;;5074878;28;20413;-67
2023/07/02 04:07:02;;;;;;;;;;;16.50;99.90;;;;;;5074304;28;20489;-67
2023/07/02 04:09:28;;;;;;;;;;;16.50;99.90;;;;;;5074787;28;20001;-67
2023/07/02 04:11:56;;;;;;;;;;;16.50;99.90;;;;;;5074655;28;20069;-67
2023/07/02 04:14:23;;;;;;;;;;;16.50;99.90;;;;;;5074664;28;20002;-67
2023/07/02 04:16:50;;;;;;;;;;;16.50;99.90;;;;;;5074341;28;20444;-67
2023/07/02 04:19:16;;;;;;;;;;;16.50;99.90;;;;;;5074281;28;20100;-67
2023/07/02 04:21:43;;;;;;;;;;;16.50;99.90;;;;;;5074635;28;20011;-67
2023/07/02 04:24:10;;;;;;;;;;;16.50;99.90;;;;;;5074409;28;20011;-67
2023/07/02 04:26:36;;;;;;;;;;;16.50;99.90;;;;;;5074650;28;20092;-67
2023/07/02 04:29:07;;;;;;;;;;;16.50;99.90;;;;;;5074758;28;20011;-67
2023/07/02 04:31:33;;;;;;;;;;;16.50;99.90;;;;;;5077535;28;20008;-67
2023/07/02 04:34:00;;;;;;;;;;;16.40;99.90;;;;;;5078025;28;20008;-67
2023/07/02 04:36:28;;;;;;;;;;;16.50;99.90;;;;;;5078202;28;20023;-67
2023/07/02 04:38:54;;;;;;;;;;;16.50;99.90;;;;;;5078314;28;20355;-67
2023/07/02 04:41:21;;;;;;;;;;;16.60;99.90;;;;;;5078294;28;20011;-67
2023/07/02 04:43:48;;;;;;;;;;;16.60;99.90;;;;;;5078286;28;20011;-68
2023/07/02 04:46:19;;;;;;;;;;;16.60;99.90;;;;;;5077892;28;20020;-67
2023/07/02 04:48:45;;;;;;;;;;;16.70;99.90;;;;;;5078057;28;20009;-67
2023/07/02 04:51:12;;;;;;;;;;;16.70;99.90;;;;;;5077677;28;20055;-67
2023/07/02 04:53:39;;;;;;;;;;;16.70;99.90;;;;;;5077651;28;20001;-67
2023/07/02 04:56:05;;;;;;;;;;;16.70;99.90;;;;;;5077605;28;20099;-67
2023/07/02 04:58:32;;;;;;;;;;;16.70;99.90;;;;;;5077993;28;20013;-67
2023/07/02 05:00:59;;;;;;;;;;;16.60;99.90;;;;;;5077432;28;20091;-67
2023/07/02 05:03:27;;;;;;;;;;;16.60;99.90;;;;;;5077316;28;20434;-67
2023/07/02 05:05:53;;;;;;;;;;;16.70;99.90;;;;;;5077697;28;20091;-67
2023/07/02 05:08:20;;;;;;;;;;;16.70;99.90;;;;;;5077721;28;20096;-67
2023/07/02 05:10:47;;;;;;;;;;;16.80;99.90;;;;;;5077253;28;20091;-67
2023/07/02 05:13:13;;;;;;;;;;;16.90;99.90;;;;;;5077741;28;20001;-67
2023/07/02 05:15:40;;;;;;;;;;;16.90;99.90;;;;;;5077544;28;20012;-67
2023/07/02 05:18:07;;;;;;;;;;;16.90;99.90;;;;;;5077477;28;20084;-68
2023/07/02 05:20:35;;;;;;;;;;;16.90;99.90;;;;;;5077216;28;20001;-68
2023/07/02 05:23:02;;;;;;;;;;;16.90;99.90;;;;;;5077494;28;20091;-66
2023/07/02 05:25:28;;;;;;;;;;;16.90;99.90;;;;;;5077472;28;20416;-67
2023/07/02 05:27:55;;;;;;;;;;;16.90;99.90;;;;;;5077222;28;20356;-67
2023/07/02 05:30:22;;;;;;;;;;;16.90;99.90;;;;;;5077130;28;20048;-67
2023/07/02 05:32:48;;;;;;;;;;;17.00;99.90;;;;;;5077284;28;20092;-68
2023/07/02 05:35:15;;;;;;;;;;;17.00;99.90;;;;;;5077065;28;20009;-66
2023/07/02 05:37:45;;;;;;;;;;;17.10;99.90;;;;;;5077051;28;20465;-68
2023/07/02 05:40:12;;;;;;;;;;;17.20;99.90;;;;;;5076899;28;20017;-67
2023/07/02 05:42:39;;;;;;;;;;;17.20;99.90;;;;;;5076198;28;20370;-68
2023/07/02 05:45:06;;;;;;;;;;;17.30;99.90;;;;;;5077269;28;20378;-69
2023/07/02 05:47:32;;;;;;;;;;;17.30;99.90;;;;;;5077394;28;20004;-68
2023/07/02 05:49:59;;;;;;;;;;;17.30;99.90;;;;;;5077038;28;20045;-68
2023/07/02 05:52:26;;;;;;;;;;;17.30;99.90;;;;;;5077117;28;20400;-69
2023/07/02 05:54:54;;;;;;;;;;;17.20;99.90;;;;;;5076970;28;20092;-67
2023/07/02 05:57:20;;;;;;;;;;;17.20;99.90;;;;;;5076667;28;20003;-67
2023/07/02 05:59:47;;;;;;;;;;;17.30;99.90;;;;;;5076568;28;20117;-66
2023/07/02 06:02:14;;;;;;;;;;;17.40;99.90;;;;;;5076660;28;20012;-68
2023/07/02 06:04:40;;;;;;;;;;;17.40;99.90;;;;;;5076566;28;20108;-67
2023/07/02 06:07:07;;;;;;;;;;;17.50;99.90;;;;;;5076580;28;20001;-67
2023/07/02 06:09:33;;;;;;;;;;;17.60;99.90;;;;;;5076362;28;20001;-67
2023/07/02 06:12:01;;;;;;;;;;;17.80;99.90;;;;;;5076324;28;20016;-68
2023/07/02 06:14:28;;;;;;;;;;;17.80;99.90;;;;;;5075889;28;20045;-68
2023/07/02 06:16:57;;;;;;;;;;;17.90;99.90;;;;;;5076105;28;20111;-67
2023/07/02 06:19:23;;;;;;;;;;;17.90;99.90;;;;;;5076061;28;20070;-66
2023/07/02 06:21:50;;;;;;;;;;;18.00;99.90;;;;;;5076239;28;20092;-68
2023/07/02 06:24:17;;;;;;;;;;;18.00;99.90;;;;;;5075852;28;20548;-67
2023/07/02 06:26:43;;;;;;;;;;;18.10;99.90;;;;;;5076006;28;20040;-68
2023/07/02 06:29:11;;;;;;;;;;;18.00;99.90;;;;;;5075727;28;20426;-67
2023/07/02 06:31:38;;;;;;;;;;;18.00;99.90;;;;;;5075873;28;20011;-67
2023/07/02 06:34:05;;;;;;;;;;;18.00;99.90;;;;;;5075779;28;20012;-67
2023/07/02 06:36:31;;;;;;;;;;;18.00;99.90;;;;;;5075251;28;20011;-68
2023/07/02 06:38:58;;;;;;;;;;;18.00;99.90;;;;;;5075400;28;20014;-68
2023/07/02 06:41:25;;;;;;;;;;;18.10;99.90;;;;;;5075393;28;20002;-67
2023/07/02 06:43:51;;;;;;;;;;;18.10;99.90;;;;;;5075924;28;20477;-67
2023/07/02 06:46:20;;;;;;;;;;;18.20;99.90;;;;;;5075354;28;20008;-67
2023/07/02 06:48:46;;;;;;;;;;;18.20;99.90;;;;;;5075682;28;20001;-68
2023/07/02 06:51:14;;;;;;;;;;;18.30;99.90;;;;;;5075250;28;20001;-68
2023/07/02 06:53:41;;;;;;;;;;;18.30;99.90;;;;;;5074912;28;20005;-68
2023/07/02 06:56:08;;;;;;;;;;;18.30;99.90;;;;;;5075181;28;20012;-69
2023/07/02 06:58:35;;;;;;;;;;;18.40;99.90;;;;;;5075852;28;20059;-68
2023/07/02 07:01:02;;;;;;;;;;;18.50;99.90;;;;;;5075206;28;20001;-66
2023/07/02 07:03:33;;;;;;;;;;;18.60;99.90;;;;;;5075509;28;20059;-67
2023/07/02 07:06:03;;;;;;;;;;;18.60;99.90;;;;;;5075185;28;20096;-68
2023/07/02 07:08:30;;;;;;;;;;;18.60;99.90;;;;;;5075322;28;20012;-68
2023/07/02 07:10:56;;;;;;;;;;;18.50;99.90;;;;;;5075246;28;20012;-66
2023/07/02 07:13:23;;;;;;;;;;;18.60;99.90;;;;;;5074840;28;20016;-68
2023/07/02 07:15:49;;;;;;;;;;;18.80;99.90;;;;;;5074823;28;20001;-68
2023/07/02 07:18:18;;;;;;;;;;;18.80;99.90;;;;;;5075177;28;20011;-68
2023/07/02 07:20:46;;;;;;;;;;;18.80;99.90;;;;;;5074980;28;20023;-68
2023/07/02 07:23:12;;;;;;;;;;;18.70;99.90;;;;;;5074893;28;20454;-68
2023/07/02 07:25:39;;;;;;;;;;;18.70;99.90;;;;;;5074678;28;20100;-68
2023/07/02 07:28:11;;;;;;;;;;;18.70;99.90;;;;;;5074577;28;20482;-68
2023/07/02 07:30:38;;;;;;;;;;;18.70;99.90;;;;;;5074657;28;19997;-69
2023/07/02 07:33:05;;;;;;;;;;;18.60;99.90;;;;;;5074624;28;20091;-68
2023/07/02 07:35:31;;;;;;;;;;;18.60;99.90;;;;;;5074963;28;20002;-68
2023/07/02 07:37:59;;;;;;;;;;;18.70;99.90;;;;;;5074499;28;20027;-67
2023/07/02 07:40:27;;;;;;;;;;;18.80;99.90;;;;;;5074807;28;20321;-68
2023/07/02 07:42:54;;;;;;;;;;;18.80;99.90;;;;;;5074787;28;20002;-68
2023/07/02 07:45:20;;;;;;;;;;;18.80;99.90;;;;;;5074947;28;20436;-68
2023/07/02 07:47:47;;;;;;;;;;;18.80;99.90;;;;;;5074525;28;20001;-68
2023/07/02 07:50:14;;;;;;;;;;;18.80;99.90;;;;;;5074956;28;20430;-68
2023/07/02 07:52:41;;;;;;;;;;;18.70;99.90;;;;;;5074628;28;20001;-68
2023/07/02 07:55:09;;;;;;;;;;;18.60;99.90;;;;;;5074807;28;20001;-68
2023/07/02 07:57:36;;;;;;;;;;;18.50;99.90;;;;;;5074767;28;20327;-67
2023/07/02 08:00:05;;;;;;;;;;;18.50;99.90;;;;;;5074678;28;20023;-67
2023/07/02 08:02:35;;;;;;;;;;;18.50;99.90;;;;;;5074482;28;20052;-68
2023/07/02 08:05:01;;;;;;;;;;;18.50;99.90;;;;;;5075255;28;20015;-68
2023/07/02 08:07:28;;;;;;;;;;;18.50;99.90;;;;;;5078389;28;20437;-68
2023/07/02 08:09:58;;;;;;;;;;;18.50;99.90;;;;;;5078657;28;20455;-69
2023/07/02 08:12:26;;;;;;;;;;;18.40;99.90;;;;;;5078638;28;20095;-68
2023/07/02 08:14:53;;;;;;;;;;;18.30;99.90;;;;;;5078541;28;20066;-68
2023/07/02 08:17:20;;;;;;;;;;;18.20;99.90;;;;;;5078413;28;20333;-67
2023/07/02 08:19:46;;;;;;;;;;;18.20;99.90;;;;;;5078349;28;20413;-67
2023/07/02 08:22:13;;;;;;;;;;;18.20;99.90;;;;;;5078024;28;20092;-67
2023/07/02 08:24:43;;;;;;;;;;;18.30;99.90;;;;;;5078295;28;20012;-68
2023/07/02 08:27:10;;;;;;;;;;;18.30;99.90;;;;;;5077981;28;20008;-67
2023/07/02 08:29:38;;;;;;;;;;;18.30;99.90;;;;;;5078385;28;20005;-69
2023/07/02 08:32:05;;;;;;;;;;;18.30;99.90;;;;;;5078842;28;20052;-69
2023/07/02 08:34:31;;;;;;;;;;;18.20;99.90;;;;;;5078483;28;20361;-68
2023/07/02 08:36:58;;;;;;;;;;;18.20;99.90;;;;;;5077725;28;20021;-69
2023/07/02 08:39:25;;;;;;;;;;;18.30;99.90;;;;;;5078011;28;20345;-68
2023/07/02 08:41:51;;;;;;;;;;;18.30;99.90;;;;;;5077693;28;20509;-68
2023/07/02 08:44:20;;;;;;;;;;;18.40;99.90;;;;;;5077875;28;20011;-68
2023/07/02 08:46:50;;;;;;;;;;;18.40;99.90;;;;;;5077529;28;20517;-68
2023/07/02 08:49:17;;;;;;;;;;;18.40;99.90;;;;;;5077433;28;20453;-68
2023/07/02 08:51:46;;;;;;;;;;;18.30;99.90;;;;;;5077739;28;20429;-68
2023/07/02 08:54:13;;;;;;;;;;;18.30;99.90;;;;;;5078086;28;20092;-68
2023/07/02 08:56:40;;;;;;;;;;;18.40;99.90;;;;;;5077907;28;20001;-68
2023/07/02 08:59:07;;;;;;;;;;;18.40;99.90;;;;;;5077109;28;20013;-68
2023/07/02 09:01:45;;;;;;;;;;;18.40;99.90;;;;;;5077175;28;20091;-67
2023/07/02 09:04:17;;;;;;;;;;;18.50;99.90;;;;;;5077517;28;19997;-68
2023/07/02 09:06:43;;;;;;;;;;;18.50;99.90;;;;;;5077299;28;20362;-67
2023/07/02 09:09:10;;;;;;;;;;;18.60;99.90;;;;;;5077027;28;20001;-67
2023/07/02 09:11:46;;;;;;;;;;;18.60;99.90;;;;;;5077057;28;20389;-67
2023/07/02 09:14:26;;;;;;;;;;;18.70;99.90;;;;;;5077231;28;19997;-67
2023/07/02 09:17:17;;;;;;;;;;;18.70;99.90;;;;;;5076806;28;20001;-69
2023/07/02 09:19:50;;;;;;;;;;;18.70;99.90;;;;;;5061568;28;20349;-68
2023/07/02 09:22:17;;;;;;;;;;;18.80;99.90;;;;;;5076970;28;20079;-67
2023/07/02 09:24:51;;;;;;;;;;;18.80;99.90;;;;;;5077105;28;20001;-67
2023/07/02 09:27:18;;;;;;;;;;;18.70;99.90;;;;;;5077109;28;20007;-68
2023/07/02 09:29:50;;;;;;;;;;;18.60;99.90;;;;;;5077259;28;20005;-67
2023/07/02 09:32:24;;;;;;;;;;;18.70;99.90;;;;;;5076802;28;20091;-68
2023/07/02 09:34:52;;;;;;;;;;;18.80;99.90;;;;;;5076733;28;19996;-68
2023/07/02 09:37:19;;;;;;;;;;;18.90;99.90;;;;;;5076872;28;20031;-68
2023/07/02 09:39:50;;;;;;;;;;;18.90;99.90;;;;;;5076273;28;20079;-68
2023/07/02 09:42:19;;;;;;;;;;;18.90;99.90;;;;;;5076682;28;20001;-68
2023/07/02 09:44:46;;;;;;;;;;;18.90;99.90;;;;;;5076850;28;20046;-69
2023/07/02 09:47:13;;;;;;;;;;;18.70;99.90;;;;;;5076367;28;20084;-69
2023/07/02 09:49:41;;;;;;;;;;;18.70;99.90;;;;;;5076657;28;20001;-67
2023/07/02 09:52:11;;;;;;;;;;;18.80;99.90;;;;;;5076093;28;20485;-68
2023/07/02 09:54:38;;;;;;;;;;;18.90;99.90;;;;;;5076552;28;20012;-67
2023/07/02 09:57:05;;;;;;;;;;;19.00;99.90;;;;;;5076315;28;20055;-67
2023/07/02 09:59:32;;;;;;;;;;;19.10;99.90;;;;;;5075838;28;20118;-67
2023/07/02 10:01:59;;;;;;;;;;;19.00;99.90;;;;;;5076050;28;20012;-66
2023/07/02 10:04:26;;;;;;;;;;;19.00;99.90;;;;;;5076691;28;20001;-67
2023/07/02 10:06:53;;;;;;;;;;;19.00;99.90;;;;;;5075999;28;20001;-66
2023/07/02 10:09:34;;;;;;;;;;;19.00;99.90;;;;;;5076066;28;20062;-68
2023/07/02 10:12:01;;;;;;;;;;;19.20;99.90;;;;;;5075953;28;19997;-68
2023/07/02 10:14:28;;;;;;;;;;;19.40;99.90;;;;;;5075716;28;20099;-68
2023/07/02 10:16:55;;;;;;;;;;;19.40;99.90;;;;;;5075583;28;20001;-67
2023/07/02 10:19:22;;;;;;;;;;;19.40;99.90;;;;;;5075730;28;20001;-68
2023/07/02 10:22:03;;;;;;;;;;;19.60;99.90;;;;;;5075902;28;20023;-67
2023/07/02 10:24:31;;;;;;;;;;;19.70;99.90;;;;;;5075593;28;20015;-67
2023/07/02 10:26:59;;;;;;;;;;;19.80;99.90;;;;;;5075700;28;20060;-68
2023/07/02 10:29:26;;;;;;;;;;;19.70;99.90;;;;;;5074792;28;20001;-67
2023/07/02 10:31:53;;;;;;;;;;;19.70;99.90;;;;;;5075686;28;20001;-67
2023/07/02 10:34:30;;;;;;;;;;;19.80;99.90;;;;;;5075470;28;20007;-68
2023/07/02 10:36:57;;;;;;;;;;;19.80;99.90;;;;;;5075115;28;20030;-68
2023/07/02 10:39:24;;;;;;;;;;;19.90;99.90;;;;;;5075051;28;20421;-67
2023/07/02 10:41:52;;;;;;;;;;;19.90;99.90;;;;;;5075514;28;20388;-69
2023/07/02 10:44:19;;;;;;;;;;;20.00;99.90;;;;;;5075076;28;20001;-66
2023/07/02 10:46:46;;;;;;;;;;;19.90;99.90;;;;;;5075000;28;20418;-68
2023/07/02 10:49:13;;;;;;;;;;;20.10;99.90;;;;;;5075387;28;20059;-67
2023/07/02 10:51:39;;;;;;;;;;;20.30;99.90;;;;;;5074829;28;20418;-67
2023/07/02 10:54:06;;;;;;;;;;;20.20;99.90;;;;;;5075173;28;20048;-67
2023/07/02 10:56:33;;;;;;;;;;;20.30;99.90;;;;;;5075034;28;20333;-67
2023/07/02 10:59:01;;;;;;;;;;;20.20;99.90;;;;;;5074804;28;20005;-67
2023/07/02 11:01:28;;;;;;;;;;;20.20;99.90;;;;;;5075067;28;20086;-68
2023/07/02 11:04:03;;;;;;;;;;;20.30;99.90;;;;;;5074976;28;20009;-68
2023/07/02 11:06:32;;;;;;;;;;;20.00;99.90;;;;;;5074915;28;20363;-68
2023/07/02 11:08:59;;;;;;;;;;;19.70;99.90;;;;;;5074445;28;20430;-68
2023/07/02 11:11:25;;;;;;;;;;;19.60;99.90;;;;;;5074684;28;20011;-68
2023/07/02 11:13:52;;;;;;;;;;;19.70;99.90;;;;;;5074563;28;20000;-68
2023/07/02 11:16:24;;;;;;;;;;;19.80;99.90;;;;;;5074437;28;20008;-66
2023/07/02 11:18:51;;;;;;;;;;;19.80;99.90;;;;;;5075039;28;19993;-67
2023/07/02 11:21:20;;;;;;;;;;;19.60;99.90;;;;;;5074705;28;20029;-67
2023/07/02 11:23:47;;;;;;;;;;;19.70;99.90;;;;;;5074719;28;20023;-67
2023/07/02 11:26:14;;;;;;;;;;;20.10;99.90;;;;;;5074437;28;20432;-68
2023/07/02 11:28:49;;;;;;;;;;;20.40;99.90;;;;;;5074640;28;20059;-68
2023/07/02 11:31:24;;;;;;;;;;;20.80;99.90;;;;;;5074459;28;19997;-68
2023/07/02 11:33:52;;;;;;;;;;;21.30;99.90;;;;;;5074891;28;20443;-68
2023/07/02 11:36:23;;;;;;;;;;;21.80;99.90;;;;;;5074288;28;20007;-68
2023/07/02 11:38:50;;;;;;;;;;;21.50;99.90;;;;;;5075000;28;19997;-68
2023/07/02 11:41:17;;;;;;;;;;;21.80;99.90;;;;;;5078951;28;20028;-69
2023/07/02 11:43:47;;;;;;;;;;;21.10;99.80;;;;;;5078850;28;20442;-68
2023/07/02 11:46:14;;;;;;;;;;;21.30;99.90;;;;;;5078538;28;20008;-70
2023/07/02 11:48:40;;;;;;;;;;;21.90;99.90;;;;;;5079209;28;20001;-68
2023/07/02 11:51:08;;;;;;;;;;;22.00;98.60;;;;;;5078841;28;20001;-68
2023/07/02 11:53:35;;;;;;;;;;;22.30;98.40;;;;;;5078413;28;20001;-69
2023/07/02 11:56:02;;;;;;;;;;;22.90;98.70;;;;;;5078634;28;20105;-69
2023/07/02 11:58:28;;;;;;;;;;;23.70;91.70;;;;;;5078306;28;20001;-68
2023/07/02 12:00:55;;;;;;;;;;;23.70;82.50;;;;;;5078657;28;20031;-68
2023/07/02 12:03:21;;;;;;;;;;;23.20;78.40;;;;;;5078961;28;20001;-68
2023/07/02 12:05:48;;;;;;;;;;;22.30;78.40;;;;;;5078723;28;20005;-68
2023/07/02 12:08:16;;;;;;;;;;;21.80;80.20;;;;;;5078661;28;20059;-68
2023/07/02 12:10:43;;;;;;;;;;;22.30;79.40;;;;;;5078199;28;20065;-68
2023/07/02 12:13:09;;;;;;;;;;;22.50;74.70;;;;;;5078143;28;20001;-68
2023/07/02 12:15:36;;;;;;;;;;;22.50;75.80;;;;;;5078294;28;20001;-69
2023/07/02 12:18:03;;;;;;;;;;;22.80;73.10;;;;;;5077940;28;20001;-67
2023/07/02 12:20:29;;;;;;;;;;;22.40;74.40;;;;;;5078088;28;20341;-68
2023/07/02 12:22:57;;;;;;;;;;;23.00;69.30;;;;;;5077743;28;20001;-67
2023/07/02 12:25:25;;;;;;;;;;;22.50;68.10;;;;;;5077945;28;20002;-68
2023/07/02 12:27:51;;;;;;;;;;;22.90;70.80;;;;;;5077801;28;20001;-67
2023/07/02 12:30:18;;;;;;;;;;;23.10;76.80;;;;;;5077811;28;20092;-67
2023/07/02 12:32:45;;;;;;;;;;;22.60;69.10;;;;;;5077912;28;20009;-68
2023/07/02 12:35:12;;;;;;;;;;;22.90;72.60;;;;;;5077895;28;20001;-67
2023/07/02 12:37:43;;;;;;;;;;;22.00;67.80;;;;;;5077934;28;20112;-68
2023/07/02 12:40:10;;;;;;;;;;;21.30;72.00;;;;;;5078298;28;20315;-68
2023/07/02 12:42:38;;;;;;;;;;;21.90;72.50;;;;;;5077564;28;20017;-68
2023/07/02 12:45:06;;;;;;;;;;;22.40;73.50;;;;;;5077648;28;20350;-68
2023/07/02 12:47:33;;;;;;;;;;;23.40;66.90;;;;;;5077596;28;20098;-67
2023/07/02 12:49:59;;;;;;;;;;;23.10;57.60;;;;;;5077891;28;20096;-68
2023/07/02 12:52:26;;;;;;;;;;;23.10;55.80;;;;;;5077374;28;19996;-68
2023/07/02 12:54:53;;;;;;;;;;;22.50;55.50;;;;;;5078412;28;20360;-68
2023/07/02 12:57:20;;;;;;;;;;;22.60;58.00;;;;;;5077427;28;20084;-68
2023/07/02 12:59:48;;;;;;;;;;;22.20;58.10;;;;;;5077546;28;20384;-69
2023/07/02 13:02:14;;;;;;;;;;;21.80;61.70;;;;;;5077411;28;20025;-67
2023/07/02 13:04:41;;;;;;;;;;;21.50;65.70;;;;;;5077439;28;20104;-68
2023/07/02 13:07:07;;;;;;;;;;;21.30;67.10;;;;;;5077509;28;20103;-68
2023/07/02 13:09:34;;;;;;;;;;;20.90;69.00;;;;;;5077807;28;20011;-68
2023/07/02 13:12:01;;;;;;;;;;;21.20;71.20;;;;;;5077306;28;20047;-68
2023/07/02 13:14:27;;;;;;;;;;;22.10;71.60;;;;;;5077439;28;20001;-69
2023/07/02 13:16:55;;;;;;;;;;;23.00;67.30;;;;;;5077165;28;20023;-67
2023/07/02 13:19:22;;;;;;;;;;;23.80;62.80;;;;;;5077237;28;20012;-69
2023/07/02 13:21:49;;;;;;;;;;;24.00;59.90;;;;;;5077007;28;20139;-67
2023/07/02 13:24:15;;;;;;;;;;;23.90;56.90;;;;;;5077056;28;20404;-67
2023/07/02 13:26:42;;;;;;;;;;;24.30;53.90;;;;;;5076875;28;20011;-67
2023/07/02 13:29:08;;;;;;;;;;;23.60;52.30;;;;;;5077045;28;20031;-69
2023/07/02 13:31:35;;;;;;;;;;;23.80;52.90;;;;;;5076671;28;20011;-67
2023/07/02 13:34:03;;;;;;;;;;;23.70;52.20;;;;;;5077091;28;20011;-68
2023/07/02 13:36:30;;;;;;;;;;;24.00;51.90;;;;;;5076807;28;20001;-69
2023/07/02 13:38:56;;;;;;;;;;;24.00;50.10;;;;;;5077406;28;19997;-69
2023/07/02 13:41:23;;;;;;;;;;;23.60;51.20;;;;;;5077038;28;20017;-68
2023/07/02 13:43:50;;;;;;;;;;;23.40;50.40;;;;;;5076520;28;20001;-68
2023/07/02 13:46:16;;;;;;;;;;;23.90;50.80;;;;;;5076250;28;20011;-68
2023/07/02 13:48:43;;;;;;;;;;;23.90;51.90;;;;;;5076318;28;20012;-69
2023/07/02 13:51:14;;;;;;;;;;;23.20;52.50;;;;;;5076497;28;20418;-69
2023/07/02 13:53:40;;;;;;;;;;;22.50;52.00;;;;;;5076908;28;20001;-69
2023/07/02 13:56:07;;;;;;;;;;;23.10;51.90;;;;;;5076714;28;20001;-68
2023/07/02 13:58:46;;;;;;;;;;;22.60;51.60;;;;;;5076874;28;20012;-68
2023/07/02 14:01:14;;;;;;;;;;;22.10;54.40;;;;;;5076289;28;20019;-68
2023/07/02 14:03:44;;;;;;;;;;;21.70;55.20;;;;;;5075453;28;20096;-68
2023/07/02 14:06:10;;;;;;;;;;;22.40;56.30;;;;;;5076334;28;20122;-68
2023/07/02 14:08:37;;;;;;;;;;;23.20;50.90;;;;;;5076260;28;20422;-68
2023/07/02 14:11:04;;;;;;;;;;;22.90;51.90;;;;;;5076792;28;20044;-69
2023/07/02 14:13:30;;;;;;;;;;;22.50;51.00;;;;;;5076633;28;20012;-68
2023/07/02 14:15:57;;;;;;;;;;;22.60;52.00;;;;;;5076286;28;20088;-69
2023/07/02 14:18:25;;;;;;;;;;;23.00;53.40;;;;;;5076340;28;20024;-69